createdAt,value
2023-02-28T00:01:15.467Z,27.60
2023-02-28T00:03:43.623Z,23.53
2023-02-28T00:06:12.381Z,32.60
2023-02-28T00:08:42.198Z,37.30
2023-02-28T00:11:13.479Z,32.03
2023-02-28T00:13:44.803Z,30.53
2023-02-28T00:16:15.924Z,22.07
2023-02-28T00:18:44.412Z,39.90
2023-02-28T00:21:12.812Z,37.17
2023-02-28T00:23:42.204Z,49.53
2023-02-28T00:26:10.524Z,41.33
2023-02-28T00:28:38.912Z,41.70
2023-02-28T00:31:07.597Z,55.37
2023-02-28T00:33:36.014Z,55.10
2023-02-28T00:36:07.033Z,36.70
2023-02-28T00:38:35.463Z,30.30
2023-02-28T00:41:06.012Z,26.97
2023-02-28T00:43:35.100Z,21.37
2023-02-28T00:46:03.577Z,29.20
2023-02-28T00:48:31.960Z,38.10
2023-02-28T00:51:00.584Z,29.20
2023-02-28T00:53:28.898Z,24.27
2023-02-28T00:55:57.251Z,21.83
2023-02-28T00:58:27.215Z,21.43
2023-02-28T01:00:56.013Z,19.10
2023-02-28T01:03:24.635Z,17.67
2023-02-28T01:05:54.239Z,15.33
2023-02-28T01:08:22.810Z,20.47
2023-02-28T01:10:51.365Z,18.17
2023-02-28T01:13:19.729Z,24.37
2023-02-28T01:15:53.730Z,23.30
2023-02-28T01:18:22.247Z,22.03
2023-02-28T01:20:52.788Z,20.27
2023-02-28T01:23:22.743Z,22.10
2023-02-28T01:25:51.090Z,24.00
2023-02-28T01:28:19.117Z,18.97
2023-02-28T01:30:52.559Z,19.43
2023-02-28T01:33:21.089Z,19.70
2023-02-28T01:35:49.524Z,29.03
2023-02-28T01:38:22.854Z,22.37
2023-02-28T01:40:51.714Z,25.93
2023-02-28T01:43:25.317Z,23.30
2023-02-28T01:45:55.467Z,23.77
2023-02-28T01:48:27.321Z,25.87
2023-02-28T01:50:57.199Z,18.90
2023-02-28T01:53:31.498Z,17.70
2023-02-28T01:56:00.111Z,20.37
2023-02-28T01:58:28.486Z,22.23
2023-02-28T02:00:58.409Z,23.13
2023-02-28T02:03:26.742Z,18.47
2023-02-28T02:05:55.069Z,24.50
2023-02-28T02:08:25.818Z,17.93
2023-02-28T02:10:56.646Z,23.20
2023-02-28T02:13:50.703Z,21.73
2023-02-28T02:16:30.708Z,19.80
2023-02-28T02:19:11.378Z,24.13
2023-02-28T02:22:09.510Z,22.17
2023-02-28T02:25:09.122Z,18.37
2023-02-28T02:28:06.840Z,18.87
2023-02-28T02:31:01.958Z,16.47
2023-02-28T02:34:25.925Z,16.40
2023-02-28T02:37:04.129Z,21.07
2023-02-28T02:39:38.876Z,21.87
2023-02-28T02:42:16.050Z,20.37
2023-02-28T02:44:48.920Z,22.83
2023-02-28T02:47:19.511Z,19.27
2023-02-28T02:49:52.581Z,18.57
2023-02-28T02:52:27.290Z,21.93
2023-02-28T02:54:58.710Z,26.73
2023-02-28T02:57:32.902Z,21.37
2023-02-28T03:00:02.608Z,27.17
2023-02-28T03:02:35.170Z,29.23
2023-02-28T03:05:08.320Z,20.53
2023-02-28T03:07:37.701Z,20.90
2023-02-28T03:10:21.049Z,31.00
2023-02-28T03:13:08.104Z,25.07
2023-02-28T03:15:47.411Z,24.17
2023-02-28T03:18:20.886Z,20.30
2023-02-28T03:20:58.167Z,25.83
2023-02-28T03:23:34.268Z,22.87
2023-02-28T03:26:08.202Z,21.13
2023-02-28T03:28:42.942Z,21.77
2023-02-28T03:31:18.382Z,22.87
2023-02-28T03:33:55.920Z,29.37
2023-02-28T03:36:28.057Z,24.57
2023-02-28T03:39:03.544Z,31.37
2023-02-28T03:41:37.214Z,18.07
2023-02-28T03:44:09.300Z,20.13
2023-02-28T03:46:40.604Z,24.47
2023-02-28T03:49:16.289Z,21.37
2023-02-28T03:51:45.048Z,21.30
2023-02-28T03:54:20.276Z,22.53
2023-02-28T03:56:54.017Z,15.73
2023-02-28T03:59:28.262Z,16.10
2023-02-28T04:01:59.331Z,21.87
2023-02-28T04:04:27.930Z,21.87
2023-02-28T04:07:04.057Z,23.90
2023-02-28T04:09:33.867Z,24.00
2023-02-28T04:12:02.332Z,22.67
2023-02-28T04:14:31.853Z,29.50
2023-02-28T04:16:59.983Z,25.43
2023-02-28T04:19:27.957Z,24.53
2023-02-28T04:21:56.175Z,35.27
2023-02-28T04:24:25.815Z,24.80
2023-02-28T04:26:57.362Z,19.70
2023-02-28T04:29:27.387Z,24.57
2023-02-28T04:31:55.938Z,32.37
2023-02-28T04:34:24.649Z,28.00
2023-02-28T04:37:11.540Z,35.67
2023-02-28T04:39:40.433Z,32.07
2023-02-28T04:42:09.926Z,37.47
2023-02-28T04:44:38.024Z,26.63
2023-02-28T04:47:06.283Z,22.73
2023-02-28T04:49:34.362Z,27.30
2023-02-28T04:52:02.931Z,32.77
2023-02-28T04:54:31.238Z,31.00
2023-02-28T04:56:59.223Z,29.67
2023-02-28T04:59:28.621Z,28.03
2023-02-28T05:01:56.599Z,24.97
2023-02-28T05:04:25.017Z,29.97
2023-02-28T05:06:52.988Z,26.47
2023-02-28T05:09:21.322Z,29.10
2023-02-28T05:11:49.649Z,22.07
2023-02-28T05:14:17.925Z,26.90
2023-02-28T05:16:47.421Z,26.73
2023-02-28T05:19:16.136Z,20.07
2023-02-28T05:21:44.850Z,23.97
2023-02-28T05:24:14.073Z,25.27
2023-02-28T05:26:45.349Z,24.23
2023-02-28T05:29:13.700Z,28.57
2023-02-28T05:31:42.182Z,24.43
2023-02-28T05:34:13.564Z,22.00
2023-02-28T05:36:42.126Z,26.93
2023-02-28T05:39:13.532Z,25.60
2023-02-28T05:41:42.978Z,24.97
2023-02-28T05:44:11.781Z,29.20
2023-02-28T05:46:40.321Z,26.27
2023-02-28T05:49:08.682Z,28.73
2023-02-28T05:51:40.962Z,31.03
2023-02-28T05:54:09.853Z,29.67
2023-02-28T05:56:40.103Z,25.17
2023-02-28T05:59:08.488Z,25.93
2023-02-28T06:01:37.536Z,27.33
2023-02-28T06:04:08.848Z,29.40
2023-02-28T06:06:40.306Z,24.73
2023-02-28T06:09:08.514Z,30.73
2023-02-28T06:11:36.624Z,24.27
2023-02-28T06:14:05.694Z,27.67
2023-02-28T06:16:35.586Z,28.73
2023-02-28T06:19:05.589Z,26.03
2023-02-28T06:21:33.966Z,35.70
2023-02-28T06:24:03.937Z,43.73
2023-02-28T06:26:32.264Z,34.57
2023-02-28T06:29:01.739Z,29.40
2023-02-28T06:31:31.119Z,32.57
2023-02-28T06:33:59.250Z,35.90
2023-02-28T06:36:27.316Z,26.67
2023-02-28T06:38:56.531Z,27.63
2023-02-28T06:41:28.785Z,34.17
2023-02-28T06:43:57.189Z,43.57
2023-02-28T06:46:26.017Z,32.60
2023-02-28T06:48:54.034Z,37.23
2023-02-28T06:51:23.382Z,26.90
2023-02-28T06:53:51.537Z,35.17
2023-02-28T06:56:21.316Z,29.63
2023-02-28T06:58:53.803Z,27.93
2023-02-28T07:01:23.962Z,26.07
2023-02-28T07:03:53.277Z,25.53
2023-02-28T07:06:23.723Z,24.73
2023-02-28T07:08:52.814Z,22.93
2023-02-28T07:11:21.084Z,23.23
2023-02-28T07:13:50.530Z,29.43
2023-02-28T07:16:18.778Z,27.93
2023-02-28T07:18:46.842Z,22.47
2023-02-28T07:21:14.859Z,29.90
2023-02-28T07:23:43.611Z,26.87
2023-02-28T07:26:16.462Z,25.70
2023-02-28T07:28:44.890Z,30.20
2023-02-28T07:31:16.044Z,26.20
2023-02-28T07:33:44.803Z,33.07
2023-02-28T07:36:16.221Z,33.43
2023-02-28T07:38:47.798Z,39.10
2023-02-28T07:41:16.851Z,32.30
2023-02-28T07:43:45.662Z,33.97
2023-02-28T07:46:17.284Z,31.43
2023-02-28T07:48:46.468Z,29.33
2023-02-28T07:51:15.036Z,26.43
2023-02-28T07:53:43.329Z,26.37
2023-02-28T07:56:12.211Z,27.67
2023-02-28T07:58:40.438Z,31.30
2023-02-28T08:01:09.786Z,26.53
2023-02-28T08:03:39.720Z,28.10
2023-02-28T08:06:09.672Z,27.17
2023-02-28T08:08:37.783Z,31.30
2023-02-28T08:11:06.276Z,28.73
2023-02-28T08:13:34.370Z,31.30
2023-02-28T08:16:04.023Z,26.23
2023-02-28T08:18:32.166Z,26.43
2023-02-28T08:21:01.582Z,26.67
2023-02-28T08:23:29.721Z,25.63
2023-02-28T08:25:58.355Z,25.30
2023-02-28T08:28:27.519Z,24.83
2023-02-28T08:30:56.123Z,21.27
2023-02-28T08:33:24.856Z,27.87
2023-02-28T08:35:56.111Z,23.93
2023-02-28T08:38:25.865Z,22.13
2023-02-28T08:41:00.377Z,23.20
2023-02-28T08:43:29.688Z,23.90
2023-02-28T08:45:58.711Z,21.93
2023-02-28T08:48:27.151Z,18.33
2023-02-28T08:51:06.804Z,20.63
2023-02-28T08:53:37.696Z,15.10
2023-02-28T08:56:08.256Z,12.93
2023-02-28T08:58:36.598Z,10.17
2023-02-28T09:01:11.538Z,13.10
2023-02-28T09:03:39.831Z,12.83
2023-02-28T09:06:08.137Z,12.90
2023-02-28T09:08:37.773Z,10.63
2023-02-28T09:11:06.874Z,5.73
2023-02-28T09:13:35.281Z,10.60
2023-02-28T09:16:05.297Z,7.90
2023-02-28T09:18:33.369Z,9.57
2023-02-28T09:21:01.344Z,5.03
2023-02-28T09:23:29.434Z,3.80
2023-02-28T09:25:59.446Z,3.80
2023-02-28T09:28:27.682Z,5.10
2023-02-28T09:30:58.515Z,5.20
2023-02-28T09:33:27.200Z,3.30
2023-02-28T09:36:01.049Z,7.50
2023-02-28T09:38:29.842Z,6.87
2023-02-28T09:41:01.525Z,7.13
2023-02-28T09:43:35.363Z,5.73
2023-02-28T09:46:13.616Z,5.40
2023-02-28T09:48:46.306Z,5.33
2023-02-28T09:51:24.239Z,6.00
2023-02-28T09:53:56.697Z,3.53
2023-02-28T09:56:35.468Z,4.97
2023-02-28T09:59:07.815Z,4.93
2023-02-28T10:01:41.347Z,3.67
2023-02-28T10:04:18.392Z,3.87
2023-02-28T10:06:51.321Z,6.47
2023-02-28T10:09:24.635Z,7.17
2023-02-28T10:11:59.037Z,4.50
2023-02-28T10:14:30.854Z,3.87
2023-02-28T10:17:01.373Z,4.17
2023-02-28T10:19:35.383Z,4.43
2023-02-28T10:22:08.965Z,4.73
2023-02-28T10:24:43.013Z,4.70
2023-02-28T10:27:17.219Z,4.47
2023-02-28T10:29:46.771Z,5.80
2023-02-28T10:32:18.015Z,4.40
2023-02-28T10:34:46.952Z,3.10
2023-02-28T10:37:16.904Z,4.07
2023-02-28T10:39:46.673Z,4.57
2023-02-28T10:42:27.682Z,4.07
2023-02-28T10:45:13.639Z,4.30
2023-02-28T10:47:56.381Z,5.10
2023-02-28T10:50:37.683Z,4.47
2023-02-28T10:53:26.799Z,6.07
2023-02-28T10:56:03.312Z,5.27
2023-02-28T10:58:44.177Z,3.63
2023-02-28T11:01:17.314Z,5.63
2023-02-28T11:03:45.745Z,4.40
2023-02-28T11:06:19.452Z,3.93
2023-02-28T11:08:53.807Z,5.73
2023-02-28T11:11:24.719Z,5.70
2023-02-28T11:13:57.967Z,4.13
2023-02-28T11:16:36.028Z,7.10
2023-02-28T11:19:05.566Z,3.27
2023-02-28T11:21:35.844Z,5.17
2023-02-28T11:24:14.582Z,5.83
2023-02-28T11:26:45.334Z,5.33
2023-02-28T11:29:23.745Z,4.77
2023-02-28T11:32:14.886Z,5.53
2023-02-28T11:34:43.894Z,5.47
2023-02-28T11:37:15.537Z,6.40
2023-02-28T11:39:44.031Z,5.43
2023-02-28T11:42:34.721Z,4.20
2023-02-28T11:45:18.969Z,4.60
2023-02-28T11:47:52.231Z,5.47
2023-02-28T11:50:48.283Z,5.70
2023-02-28T11:53:29.422Z,4.73
2023-02-28T11:56:03.993Z,3.97
2023-02-28T11:58:41.648Z,3.37
2023-02-28T12:01:23.804Z,7.70
2023-02-28T12:04:05.356Z,4.27
2023-02-28T12:06:41.175Z,4.40
2023-02-28T12:09:31.845Z,5.70
2023-02-28T12:12:04.920Z,3.43
2023-02-28T12:14:51.940Z,4.00
2023-02-28T12:17:32.520Z,4.80
2023-02-28T12:20:11.678Z,4.33
2023-02-28T12:22:45.774Z,6.87
2023-02-28T12:25:46.002Z,4.47
2023-02-28T12:28:16.950Z,3.30
2023-02-28T12:30:53.065Z,5.23
2023-02-28T12:33:27.031Z,5.70
2023-02-28T12:35:58.163Z,5.33
2023-02-28T12:38:30.021Z,4.73
2023-02-28T12:41:03.086Z,4.63
2023-02-28T12:43:35.414Z,6.53
2023-02-28T12:46:10.141Z,4.20
2023-02-28T12:48:44.579Z,5.67
2023-02-28T12:51:14.751Z,7.73
2023-02-28T12:53:54.864Z,4.77
2023-02-28T12:56:33.680Z,4.20
2023-02-28T12:59:06.316Z,6.30
2023-02-28T13:01:56.680Z,4.07
2023-02-28T13:05:00.057Z,3.93
2023-02-28T13:07:54.310Z,7.97
2023-02-28T13:10:22.606Z,4.60
2023-02-28T13:12:53.826Z,5.57
2023-02-28T13:15:26.584Z,5.77
2023-02-28T13:17:56.956Z,5.30
2023-02-28T13:20:28.783Z,4.90
2023-02-28T13:22:58.890Z,5.13
2023-02-28T13:25:58.049Z,4.40
2023-02-28T13:29:09.283Z,7.53
2023-02-28T13:32:14.861Z,5.23
2023-02-28T13:34:49.497Z,4.33
2023-02-28T13:37:38.544Z,4.63
2023-02-28T13:40:30.806Z,6.17
2023-02-28T13:42:59.180Z,6.10
2023-02-28T13:45:38.108Z,5.43
2023-02-28T13:48:07.380Z,5.47
2023-02-28T13:50:39.105Z,5.40
2023-02-28T13:53:54.982Z,8.47
2023-02-28T13:56:41.337Z,8.23
2023-02-28T13:59:25.977Z,4.60
2023-02-28T14:02:31.822Z,9.57
2023-02-28T14:05:04.792Z,4.20
2023-02-28T14:07:39.716Z,5.50
2023-02-28T14:10:09.981Z,5.33
2023-02-28T14:13:04.353Z,5.80
2023-02-28T14:15:57.834Z,4.97
2023-02-28T14:18:32.483Z,6.43
2023-02-28T14:21:05.797Z,6.57
2023-02-28T14:24:22.385Z,5.40
2023-02-28T14:27:11.533Z,5.67
2023-02-28T14:30:09.966Z,5.03
2023-02-28T14:32:46.086Z,4.40
2023-02-28T14:35:26.352Z,4.97
2023-02-28T14:37:55.820Z,5.33
2023-02-28T14:40:29.879Z,7.60
2023-02-28T14:43:00.728Z,8.00
2023-02-28T14:45:32.779Z,6.47
2023-02-28T14:48:02.720Z,5.13
2023-02-28T14:50:33.824Z,5.20
2023-02-28T14:53:02.043Z,5.70
2023-02-28T14:55:32.922Z,6.17
2023-02-28T14:58:03.932Z,3.90
2023-02-28T15:00:34.438Z,4.13
2023-02-28T15:03:19.187Z,10.60
2023-02-28T15:05:54.694Z,9.57
2023-02-28T15:08:23.245Z,7.87
2023-02-28T15:10:56.816Z,4.30
2023-02-28T15:13:28.687Z,4.20
2023-02-28T15:16:03.261Z,4.77
2023-02-28T15:18:39.557Z,5.83
2023-02-28T15:21:10.227Z,4.40
2023-02-28T15:23:39.564Z,5.07
2023-02-28T15:26:08.126Z,5.93
2023-02-28T15:28:36.488Z,5.00
2023-02-28T15:31:22.191Z,7.90
2023-02-28T15:33:55.509Z,7.07
2023-02-28T15:36:28.843Z,6.43
2023-02-28T15:39:01.572Z,5.27
2023-02-28T15:41:40.037Z,6.83
2023-02-28T15:44:19.813Z,4.37
2023-02-28T15:47:03.652Z,5.57
2023-02-28T15:49:45.061Z,8.50
2023-02-28T15:52:17.755Z,12.73
2023-02-28T15:54:47.528Z,10.03
2023-02-28T15:57:19.995Z,7.43
2023-02-28T15:59:53.985Z,11.80
2023-02-28T16:02:32.921Z,19.07
2023-02-28T16:05:04.846Z,20.00
2023-02-28T16:07:32.927Z,12.83
2023-02-28T16:10:01.561Z,9.10
2023-02-28T16:12:32.334Z,17.67
2023-02-28T16:15:03.835Z,33.53
2023-02-28T16:17:36.848Z,93.00
2023-02-28T16:20:14.675Z,65.73
2023-02-28T16:22:43.819Z,66.23
2023-02-28T16:25:14.815Z,60.50
2023-02-28T16:27:43.816Z,13.23
2023-02-28T16:30:19.774Z,11.90
2023-02-28T16:32:49.758Z,11.17
2023-02-28T16:35:18.995Z,36.77
2023-02-28T16:37:47.633Z,19.57
2023-02-28T16:40:21.905Z,17.27
2023-02-28T16:42:52.466Z,19.37
2023-02-28T16:45:23.928Z,79.23
2023-02-28T16:47:53.825Z,80.63
2023-02-28T16:50:24.281Z,79.27
2023-02-28T16:52:55.523Z,81.17
2023-02-28T16:55:24.178Z,103.57
2023-02-28T16:57:55.201Z,167.47
2023-02-28T17:00:24.399Z,142.10
2023-02-28T17:02:54.193Z,52.90
2023-02-28T17:05:23.090Z,67.80
2023-02-28T17:07:52.075Z,51.93
2023-02-28T17:10:22.597Z,57.47
2023-02-28T17:12:51.184Z,56.50
2023-02-28T17:15:21.248Z,45.17
2023-02-28T17:17:50.974Z,50.70
2023-02-28T17:20:23.548Z,34.33
2023-02-28T17:22:52.068Z,36.17
2023-02-28T17:25:20.739Z,45.10
2023-02-28T17:27:49.260Z,41.37
2023-02-28T17:30:20.589Z,30.23
2023-02-28T17:32:48.752Z,32.50
2023-02-28T17:35:17.183Z,72.17
2023-02-28T17:37:47.133Z,62.67
2023-02-28T17:40:17.107Z,46.40
2023-02-28T17:42:45.309Z,22.63
2023-02-28T17:45:14.133Z,22.13
2023-02-28T17:47:43.906Z,19.33
2023-02-28T17:50:15.955Z,28.60
2023-02-28T17:52:44.140Z,20.37
2023-02-28T17:55:14.274Z,18.77
2023-02-28T17:57:43.372Z,24.07
2023-02-28T18:00:17.093Z,35.23
2023-02-28T18:02:45.328Z,38.87
2023-02-28T18:05:14.123Z,31.13
2023-02-28T18:07:42.819Z,20.07
2023-02-28T18:10:20.143Z,23.63
2023-02-28T18:12:49.269Z,28.50
2023-02-28T18:15:18.116Z,39.90
2023-02-28T18:17:46.192Z,87.63
2023-02-28T18:20:14.425Z,31.47
2023-02-28T18:22:43.470Z,38.17
2023-02-28T18:25:14.791Z,35.60
2023-02-28T18:27:53.932Z,32.73
2023-02-28T18:30:22.301Z,35.17
2023-02-28T18:32:50.455Z,37.73
2023-02-28T18:35:34.537Z,49.17
2023-02-28T18:38:07.638Z,71.27
2023-02-28T18:40:38.092Z,57.37
2023-02-28T18:43:07.235Z,88.40
2023-02-28T18:45:38.524Z,139.13
2023-02-28T18:48:07.580Z,175.27
2023-02-28T18:50:39.049Z,83.03
2023-02-28T18:53:07.217Z,86.80
2023-02-28T18:55:36.656Z,70.33
2023-02-28T18:58:04.799Z,96.63
2023-02-28T19:00:33.341Z,93.30
2023-02-28T19:03:01.515Z,101.13
2023-02-28T19:05:33.044Z,97.60
2023-02-28T19:08:01.357Z,102.07
2023-02-28T19:10:29.958Z,123.83
2023-02-28T19:12:59.538Z,119.73
2023-02-28T19:15:27.610Z,103.77
2023-02-28T19:17:56.017Z,105.77
2023-02-28T19:20:24.325Z,103.70
2023-02-28T19:22:52.596Z,95.07
2023-02-28T19:25:20.992Z,102.50
2023-02-28T19:27:49.152Z,97.83
2023-02-28T19:30:19.060Z,98.77
2023-02-28T19:32:47.814Z,92.77
2023-02-28T19:35:16.280Z,89.90
2023-02-28T19:37:44.433Z,89.77
2023-02-28T19:40:14.631Z,79.60
2023-02-28T19:42:42.770Z,90.43
2023-02-28T19:45:14.715Z,91.47
2023-02-28T19:47:44.966Z,87.00
2023-02-28T19:50:13.402Z,77.57
2023-02-28T19:55:11.053Z,84.33
2023-02-28T19:57:39.179Z,71.20
2023-02-28T20:00:09.181Z,78.93
2023-02-28T20:02:38.115Z,75.07
2023-02-28T20:05:08.892Z,83.60
2023-02-28T20:07:37.297Z,75.13
2023-02-28T20:10:05.969Z,78.07
2023-02-28T20:12:34.147Z,85.13
2023-02-28T20:15:02.307Z,80.03
2023-02-28T20:17:31.113Z,79.63
2023-02-28T20:19:59.207Z,76.50
2023-02-28T20:22:28.990Z,70.27
2023-02-28T20:24:57.068Z,89.43
2023-02-28T20:27:25.828Z,92.30
2023-02-28T20:29:54.224Z,90.00
2023-02-28T20:32:22.756Z,88.57
2023-02-28T20:34:50.824Z,85.50
2023-02-28T20:37:18.954Z,94.47
2023-02-28T20:39:49.683Z,59.10
2023-02-28T20:42:18.042Z,70.77
2023-02-28T20:44:46.310Z,82.27
2023-02-28T20:47:14.359Z,72.67
2023-02-28T20:49:42.477Z,77.80
2023-02-28T20:52:10.587Z,71.47
2023-02-28T20:54:38.709Z,72.20
2023-02-28T20:57:08.207Z,95.17
2023-02-28T20:59:36.553Z,95.40
2023-02-28T21:02:04.597Z,135.13
2023-02-28T21:04:32.758Z,83.47
2023-02-28T21:07:00.881Z,108.60
2023-02-28T21:09:29.167Z,90.93
2023-02-28T21:11:57.227Z,92.93
2023-02-28T21:14:27.433Z,108.27
2023-02-28T21:16:55.564Z,113.53
2023-02-28T21:19:23.588Z,117.43
2023-02-28T21:21:51.663Z,122.00
2023-02-28T21:24:20.982Z,130.50
2023-02-28T21:26:49.730Z,115.83
2023-02-28T21:29:17.864Z,120.80
2023-02-28T21:31:47.427Z,147.37
2023-02-28T21:34:15.530Z,131.43
2023-02-28T21:36:47.422Z,132.43
2023-02-28T21:39:18.035Z,381.73
2023-02-28T21:41:46.396Z,143.30
2023-02-28T21:44:18.306Z,107.70
2023-02-28T21:46:49.720Z,113.17
2023-02-28T21:49:18.385Z,109.20
2023-02-28T21:51:46.590Z,104.33
2023-02-28T21:54:15.416Z,125.70
2023-02-28T21:56:43.567Z,130.23
2023-02-28T21:59:12.067Z,158.93
2023-02-28T22:01:43.576Z,135.20
2023-02-28T22:04:20.978Z,131.93
2023-02-28T22:06:50.608Z,125.47
2023-02-28T22:09:19.053Z,122.47
2023-02-28T22:11:47.569Z,120.17
2023-02-28T22:14:15.693Z,124.20
2023-02-28T22:16:51.780Z,117.50
2023-02-28T22:19:23.537Z,121.87
2023-02-28T22:21:51.770Z,122.10
2023-02-28T22:24:23.330Z,111.70
2023-02-28T22:26:51.619Z,130.50
2023-02-28T22:29:20.616Z,126.10
2023-02-28T22:31:49.180Z,115.80
2023-02-28T22:34:17.349Z,125.17
2023-02-28T22:36:46.954Z,116.50
2023-02-28T22:39:15.295Z,125.23
2023-02-28T22:41:43.461Z,118.00
2023-02-28T22:44:12.475Z,189.73
2023-02-28T22:46:40.676Z,218.40
2023-02-28T22:49:08.884Z,161.17
2023-02-28T22:51:37.280Z,149.70
2023-02-28T22:54:07.123Z,137.20
2023-02-28T22:56:35.280Z,128.63
2023-02-28T22:59:04.172Z,130.80
2023-02-28T23:01:34.509Z,132.07
2023-02-28T23:04:02.940Z,110.47
2023-02-28T23:06:33.699Z,133.13
2023-02-28T23:09:04.632Z,126.57
2023-02-28T23:11:36.602Z,126.50
2023-02-28T23:14:05.289Z,131.20
2023-02-28T23:16:38.964Z,124.73
2023-02-28T23:19:09.689Z,123.13
2023-02-28T23:21:38.540Z,111.83
2023-02-28T23:24:10.763Z,136.73
2023-02-28T23:26:41.677Z,127.43
2023-02-28T23:29:09.790Z,122.13
2023-02-28T23:31:37.830Z,99.93
2023-02-28T23:34:06.007Z,131.40
2023-02-28T23:36:34.458Z,115.17
2023-02-28T23:39:02.633Z,119.77
2023-02-28T23:41:31.984Z,117.40
2023-02-28T23:44:01.487Z,108.17
2023-02-28T23:46:29.811Z,109.23
2023-02-28T23:48:59.407Z,113.23
2023-02-28T23:51:27.475Z,109.23
2023-02-28T23:53:55.686Z,98.80
2023-02-28T23:56:25.739Z,109.90
2023-02-28T23:58:55.828Z,93.73
